sensor_id;sensor_type;location;lat;lon;timestamp;P1;durP1;ratioP1;P2;durP2;ratioP2
8514;SDS011;4295;51.024;7.000;2022-07-22T00:01:09;88.90;;;18.37;;
8514;SDS011;4295;51.024;7.000;2022-07-22T00:03:34;91.17;;;17.40;;
8514;SDS011;4295;51.024;7.000;2022-07-22T00:06:00;88.93;;;15.70;;
8514;SDS011;4295;51.024;7.000;2022-07-22T00:08:25;94.43;;;15.70;;
8514;SDS011;4295;51.024;7.000;2022-07-22T00:10:50;85.80;;;15.17;;
8514;SDS011;4295;51.024;7.000;2022-07-22T00:13:16;84.20;;;14.37;;
8514;SDS011;4295;51.024;7.000;2022-07-22T00:15:41;84.00;;;14.20;;
8514;SDS011;4295;51.024;7.000;2022-07-22T00:18:07;88.80;;;13.23;;
8514;SDS011;4295;51.024;7.000;2022-07-22T00:20:32;83.40;;;13.43;;
8514;SDS011;4295;51.024;7.000;2022-07-22T00:22:57;86.03;;;13.77;;
8514;SDS011;4295;51.024;7.000;2022-07-22T00:25:23;83.40;;;13.40;;
8514;SDS011;4295;51.024;7.000;2022-07-22T00:27:48;86.23;;;13.53;;
8514;SDS011;4295;51.024;7.000;2022-07-22T00:30:14;85.73;;;13.73;;
8514;SDS011;4295;51.024;7.000;2022-07-22T00:32:39;81.37;;;12.20;;
8514;SDS011;4295;51.024;7.000;2022-07-22T00:35:05;80.70;;;12.43;;
8514;SDS011;4295;51.024;7.000;2022-07-22T00:37:31;84.10;;;12.93;;
8514;SDS011;4295;51.024;7.000;2022-07-22T00:39:57;82.93;;;12.70;;
8514;SDS011;4295;51.024;7.000;2022-07-22T00:42:22;84.23;;;12.70;;
8514;SDS011;4295;51.024;7.000;2022-07-22T00:44:50;83.07;;;12.70;;
8514;SDS011;4295;51.024;7.000;2022-07-22T00:47:15;82.27;;;12.67;;
8514;SDS011;4295;51.024;7.000;2022-07-22T00:49:41;89.30;;;13.50;;
8514;SDS011;4295;51.024;7.000;2022-07-22T00:52:06;80.40;;;11.30;;
8514;SDS011;4295;51.024;7.000;2022-07-22T00:54:32;86.33;;;11.90;;
8514;SDS011;4295;51.024;7.000;2022-07-22T00:56:58;85.37;;;12.60;;
8514;SDS011;4295;51.024;7.000;2022-07-22T00:59:24;83.73;;;12.20;;
8514;SDS011;4295;51.024;7.000;2022-07-22T01:01:49;80.20;;;11.87;;
8514;SDS011;4295;51.024;7.000;2022-07-22T01:04:16;84.60;;;12.27;;
8514;SDS011;4295;51.024;7.000;2022-07-22T01:06:42;80.80;;;12.60;;
8514;SDS011;4295;51.024;7.000;2022-07-22T01:09:10;91.57;;;12.80;;
8514;SDS011;4295;51.024;7.000;2022-07-22T01:11:36;82.87;;;12.97;;
8514;SDS011;4295;51.024;7.000;2022-07-22T01:14:02;86.67;;;12.70;;
8514;SDS011;4295;51.024;7.000;2022-07-22T01:16:27;81.07;;;12.27;;
8514;SDS011;4295;51.024;7.000;2022-07-22T01:18:53;82.87;;;12.77;;
8514;SDS011;4295;51.024;7.000;2022-07-22T01:21:19;84.63;;;12.90;;
8514;SDS011;4295;51.024;7.000;2022-07-22T01:23:45;83.00;;;12.87;;
8514;SDS011;4295;51.024;7.000;2022-07-22T01:26:11;85.53;;;13.80;;
8514;SDS011;4295;51.024;7.000;2022-07-22T01:28:36;83.83;;;13.33;;
8514;SDS011;4295;51.024;7.000;2022-07-22T01:31:02;89.43;;;13.10;;
8514;SDS011;4295;51.024;7.000;2022-07-22T01:33:27;82.27;;;13.00;;
8514;SDS011;4295;51.024;7.000;2022-07-22T01:35:53;88.53;;;12.43;;
8514;SDS011;4295;51.024;7.000;2022-07-22T01:38:19;86.10;;;13.33;;
8514;SDS011;4295;51.024;7.000;2022-07-22T01:40:45;83.87;;;13.10;;
8514;SDS011;4295;51.024;7.000;2022-07-22T01:43:11;83.47;;;12.73;;
8514;SDS011;4295;51.024;7.000;2022-07-22T01:45:36;89.83;;;13.83;;
8514;SDS011;4295;51.024;7.000;2022-07-22T01:48:02;84.27;;;13.00;;
8514;SDS011;4295;51.024;7.000;2022-07-22T01:50:28;92.33;;;13.13;;
8514;SDS011;4295;51.024;7.000;2022-07-22T01:52:53;84.80;;;12.90;;
8514;SDS011;4295;51.024;7.000;2022-07-22T01:55:18;82.70;;;12.93;;
8514;SDS011;4295;51.024;7.000;2022-07-22T01:57:44;88.93;;;12.90;;
8514;SDS011;4295;51.024;7.000;2022-07-22T02:00:09;84.00;;;12.80;;
8514;SDS011;4295;51.024;7.000;2022-07-22T02:02:36;86.73;;;12.63;;
8514;SDS011;4295;51.024;7.000;2022-07-22T02:05:02;85.10;;;12.57;;
8514;SDS011;4295;51.024;7.000;2022-07-22T02:07:29;81.20;;;13.03;;
8514;SDS011;4295;51.024;7.000;2022-07-22T02:09:55;83.47;;;13.63;;
8514;SDS011;4295;51.024;7.000;2022-07-22T02:12:20;85.20;;;13.93;;
8514;SDS011;4295;51.024;7.000;2022-07-22T02:14:46;87.17;;;13.70;;
8514;SDS011;4295;51.024;7.000;2022-07-22T02:17:12;85.60;;;14.20;;
8514;SDS011;4295;51.024;7.000;2022-07-22T02:19:38;89.63;;;14.30;;
8514;SDS011;4295;51.024;7.000;2022-07-22T02:22:04;87.73;;;14.23;;
8514;SDS011;4295;51.024;7.000;2022-07-22T02:24:30;88.87;;;14.67;;
8514;SDS011;4295;51.024;7.000;2022-07-22T02:26:55;86.03;;;14.30;;
8514;SDS011;4295;51.024;7.000;2022-07-22T02:29:21;86.30;;;14.60;;
8514;SDS011;4295;51.024;7.000;2022-07-22T02:31:47;86.77;;;16.20;;
8514;SDS011;4295;51.024;7.000;2022-07-22T02:34:12;101.20;;;16.60;;
8514;SDS011;4295;51.024;7.000;2022-07-22T02:36:38;88.23;;;15.43;;
8514;SDS011;4295;51.024;7.000;2022-07-22T02:39:03;86.03;;;14.57;;
8514;SDS011;4295;51.024;7.000;2022-07-22T02:41:29;94.37;;;15.50;;
8514;SDS011;4295;51.024;7.000;2022-07-22T02:43:54;88.00;;;14.37;;
8514;SDS011;4295;51.024;7.000;2022-07-22T02:46:24;85.30;;;13.17;;
8514;SDS011;4295;51.024;7.000;2022-07-22T02:48:50;89.10;;;13.40;;
8514;SDS011;4295;51.024;7.000;2022-07-22T02:51:16;96.40;;;15.00;;
8514;SDS011;4295;51.024;7.000;2022-07-22T02:53:42;91.67;;;13.73;;
8514;SDS011;4295;51.024;7.000;2022-07-22T02:56:07;90.30;;;14.90;;
8514;SDS011;4295;51.024;7.000;2022-07-22T02:58:33;96.30;;;16.30;;
8514;SDS011;4295;51.024;7.000;2022-07-22T03:00:58;96.23;;;16.67;;
8514;SDS011;4295;51.024;7.000;2022-07-22T03:03:24;88.37;;;16.77;;
8514;SDS011;4295;51.024;7.000;2022-07-22T03:05:49;92.13;;;16.90;;
8514;SDS011;4295;51.024;7.000;2022-07-22T03:08:15;92.23;;;17.23;;
8514;SDS011;4295;51.024;7.000;2022-07-22T03:10:40;95.63;;;17.50;;
8514;SDS011;4295;51.024;7.000;2022-07-22T03:13:06;94.17;;;17.00;;
8514;SDS011;4295;51.024;7.000;2022-07-22T03:15:32;88.13;;;16.97;;
8514;SDS011;4295;51.024;7.000;2022-07-22T03:17:57;86.57;;;17.20;;
8514;SDS011;4295;51.024;7.000;2022-07-22T03:20:23;87.57;;;17.30;;
8514;SDS011;4295;51.024;7.000;2022-07-22T03:22:48;89.20;;;17.17;;
8514;SDS011;4295;51.024;7.000;2022-07-22T03:25:13;92.50;;;18.87;;
8514;SDS011;4295;51.024;7.000;2022-07-22T03:27:39;90.43;;;17.70;;
8514;SDS011;4295;51.024;7.000;2022-07-22T03:30:05;87.47;;;17.67;;
8514;SDS011;4295;51.024;7.000;2022-07-22T03:32:30;91.80;;;19.40;;
8514;SDS011;4295;51.024;7.000;2022-07-22T03:34:56;90.33;;;17.90;;
8514;SDS011;4295;51.024;7.000;2022-07-22T03:37:21;91.53;;;18.23;;
8514;SDS011;4295;51.024;7.000;2022-07-22T03:39:47;87.67;;;17.93;;
8514;SDS011;4295;51.024;7.000;2022-07-22T03:42:12;89.50;;;17.93;;
8514;SDS011;4295;51.024;7.000;2022-07-22T03:44:38;85.93;;;18.37;;
8514;SDS011;4295;51.024;7.000;2022-07-22T03:47:03;91.03;;;17.57;;
8514;SDS011;4295;51.024;7.000;2022-07-22T03:49:29;90.87;;;18.03;;
8514;SDS011;4295;51.024;7.000;2022-07-22T03:51:55;91.57;;;17.97;;
8514;SDS011;4295;51.024;7.000;2022-07-22T03:54:21;89.27;;;17.63;;
8514;SDS011;4295;51.024;7.000;2022-07-22T03:56:46;89.00;;;17.80;;
8514;SDS011;4295;51.024;7.000;2022-07-22T03:59:11;86.07;;;16.73;;
8514;SDS011;4295;51.024;7.000;2022-07-22T04:01:37;94.50;;;15.97;;
8514;SDS011;4295;51.024;7.000;2022-07-22T04:04:02;91.17;;;18.07;;
8514;SDS011;4295;51.024;7.000;2022-07-22T04:06:28;91.53;;;16.37;;
8514;SDS011;4295;51.024;7.000;2022-07-22T04:08:53;87.00;;;16.63;;
8514;SDS011;4295;51.024;7.000;2022-07-22T04:11:19;95.47;;;17.90;;
8514;SDS011;4295;51.024;7.000;2022-07-22T04:13:45;91.27;;;17.33;;
8514;SDS011;4295;51.024;7.000;2022-07-22T04:16:11;92.90;;;18.70;;
8514;SDS011;4295;51.024;7.000;2022-07-22T04:18:36;90.10;;;18.67;;
8514;SDS011;4295;51.024;7.000;2022-07-22T04:21:02;85.87;;;18.47;;
8514;SDS011;4295;51.024;7.000;2022-07-22T04:23:27;88.67;;;17.63;;
8514;SDS011;4295;51.024;7.000;2022-07-22T04:25:52;92.10;;;19.20;;
8514;SDS011;4295;51.024;7.000;2022-07-22T04:28:18;89.10;;;18.50;;
8514;SDS011;4295;51.024;7.000;2022-07-22T04:30:43;86.37;;;19.10;;
8514;SDS011;4295;51.024;7.000;2022-07-22T04:33:09;88.00;;;19.80;;
8514;SDS011;4295;51.024;7.000;2022-07-22T04:35:34;97.43;;;20.70;;
8514;SDS011;4295;51.024;7.000;2022-07-22T04:38:00;88.00;;;19.40;;
8514;SDS011;4295;51.024;7.000;2022-07-22T04:40:25;91.93;;;19.10;;
8514;SDS011;4295;51.024;7.000;2022-07-22T04:42:51;91.20;;;18.70;;
8514;SDS011;4295;51.024;7.000;2022-07-22T04:45:16;90.33;;;20.37;;
8514;SDS011;4295;51.024;7.000;2022-07-22T04:47:42;92.20;;;20.03;;
8514;SDS011;4295;51.024;7.000;2022-07-22T04:50:07;88.20;;;19.37;;
8514;SDS011;4295;51.024;7.000;2022-07-22T04:52:33;90.13;;;19.00;;
8514;SDS011;4295;51.024;7.000;2022-07-22T04:54:59;94.47;;;20.60;;
8514;SDS011;4295;51.024;7.000;2022-07-22T04:57:24;87.60;;;19.60;;
8514;SDS011;4295;51.024;7.000;2022-07-22T04:59:51;94.17;;;21.50;;
8514;SDS011;4295;51.024;7.000;2022-07-22T05:02:17;91.03;;;20.57;;
8514;SDS011;4295;51.024;7.000;2022-07-22T05:04:42;92.50;;;22.63;;
8514;SDS011;4295;51.024;7.000;2022-07-22T05:07:08;103.63;;;23.40;;
8514;SDS011;4295;51.024;7.000;2022-07-22T05:09:33;92.70;;;22.83;;
8514;SDS011;4295;51.024;7.000;2022-07-22T05:11:59;91.90;;;24.37;;
8514;SDS011;4295;51.024;7.000;2022-07-22T05:14:24;99.37;;;24.93;;
8514;SDS011;4295;51.024;7.000;2022-07-22T05:16:49;98.63;;;24.73;;
8514;SDS011;4295;51.024;7.000;2022-07-22T05:19:15;99.43;;;25.33;;
8514;SDS011;4295;51.024;7.000;2022-07-22T05:21:40;97.27;;;24.57;;
8514;SDS011;4295;51.024;7.000;2022-07-22T05:24:06;99.53;;;25.33;;
8514;SDS011;4295;51.024;7.000;2022-07-22T05:26:32;100.23;;;25.13;;
8514;SDS011;4295;51.024;7.000;2022-07-22T05:28:58;94.60;;;24.23;;
8514;SDS011;4295;51.024;7.000;2022-07-22T05:31:24;94.03;;;23.07;;
8514;SDS011;4295;51.024;7.000;2022-07-22T05:33:49;95.63;;;23.57;;
8514;SDS011;4295;51.024;7.000;2022-07-22T05:36:15;93.90;;;23.53;;
8514;SDS011;4295;51.024;7.000;2022-07-22T05:38:40;100.20;;;23.90;;
8514;SDS011;4295;51.024;7.000;2022-07-22T05:41:06;98.47;;;23.40;;
8514;SDS011;4295;51.024;7.000;2022-07-22T05:43:31;94.10;;;23.50;;
8514;SDS011;4295;51.024;7.000;2022-07-22T05:45:57;98.27;;;24.83;;
8514;SDS011;4295;51.024;7.000;2022-07-22T05:48:22;101.70;;;23.07;;
8514;SDS011;4295;51.024;7.000;2022-07-22T05:50:48;95.70;;;24.17;;
8514;SDS011;4295;51.024;7.000;2022-07-22T05:53:13;90.37;;;20.43;;
8514;SDS011;4295;51.024;7.000;2022-07-22T05:55:38;88.03;;;19.37;;
8514;SDS011;4295;51.024;7.000;2022-07-22T05:58:04;86.57;;;15.80;;
8514;SDS011;4295;51.024;7.000;2022-07-22T06:00:29;92.13;;;14.50;;
8514;SDS011;4295;51.024;7.000;2022-07-22T06:02:55;87.67;;;14.60;;
8514;SDS011;4295;51.024;7.000;2022-07-22T06:05:20;84.47;;;12.10;;
8514;SDS011;4295;51.024;7.000;2022-07-22T06:07:46;81.67;;;12.30;;
8514;SDS011;4295;51.024;7.000;2022-07-22T06:10:12;84.33;;;13.27;;
8514;SDS011;4295;51.024;7.000;2022-07-22T06:12:37;86.03;;;13.60;;
8514;SDS011;4295;51.024;7.000;2022-07-22T06:15:03;80.90;;;13.37;;
8514;SDS011;4295;51.024;7.000;2022-07-22T06:17:29;82.93;;;13.50;;
8514;SDS011;4295;51.024;7.000;2022-07-22T06:19:55;81.67;;;12.90;;
8514;SDS011;4295;51.024;7.000;2022-07-22T06:22:21;81.30;;;12.90;;
8514;SDS011;4295;51.024;7.000;2022-07-22T06:24:46;84.13;;;13.90;;
8514;SDS011;4295;51.024;7.000;2022-07-22T06:27:12;85.07;;;12.93;;
8514;SDS011;4295;51.024;7.000;2022-07-22T06:29:37;80.77;;;12.57;;
8514;SDS011;4295;51.024;7.000;2022-07-22T06:32:03;84.07;;;13.03;;
8514;SDS011;4295;51.024;7.000;2022-07-22T06:34:28;79.93;;;11.37;;
8514;SDS011;4295;51.024;7.000;2022-07-22T06:36:54;82.90;;;11.20;;
8514;SDS011;4295;51.024;7.000;2022-07-22T06:39:20;81.00;;;10.33;;
8514;SDS011;4295;51.024;7.000;2022-07-22T06:41:46;80.53;;;9.40;;
8514;SDS011;4295;51.024;7.000;2022-07-22T06:44:12;78.97;;;8.93;;
8514;SDS011;4295;51.024;7.000;2022-07-22T06:46:37;80.10;;;9.70;;
8514;SDS011;4295;51.024;7.000;2022-07-22T06:49:02;82.53;;;9.63;;
8514;SDS011;4295;51.024;7.000;2022-07-22T06:51:28;79.47;;;9.57;;
8514;SDS011;4295;51.024;7.000;2022-07-22T06:53:53;78.30;;;9.03;;
8514;SDS011;4295;51.024;7.000;2022-07-22T06:56:19;80.63;;;10.30;;
8514;SDS011;4295;51.024;7.000;2022-07-22T06:58:44;79.83;;;9.43;;
8514;SDS011;4295;51.024;7.000;2022-07-22T07:01:10;80.87;;;9.30;;
8514;SDS011;4295;51.024;7.000;2022-07-22T07:03:35;80.17;;;10.13;;
8514;SDS011;4295;51.024;7.000;2022-07-22T07:06:01;77.90;;;9.20;;
8514;SDS011;4295;51.024;7.000;2022-07-22T07:08:27;84.93;;;9.07;;
8514;SDS011;4295;51.024;7.000;2022-07-22T07:10:53;78.07;;;9.50;;
8514;SDS011;4295;51.024;7.000;2022-07-22T07:13:18;78.90;;;9.67;;
8514;SDS011;4295;51.024;7.000;2022-07-22T07:15:44;81.40;;;10.10;;
8514;SDS011;4295;51.024;7.000;2022-07-22T07:18:09;80.27;;;10.30;;
8514;SDS011;4295;51.024;7.000;2022-07-22T07:20:35;82.93;;;11.20;;
8514;SDS011;4295;51.024;7.000;2022-07-22T07:23:00;80.37;;;9.87;;
8514;SDS011;4295;51.024;7.000;2022-07-22T07:25:29;79.77;;;9.53;;
8514;SDS011;4295;51.024;7.000;2022-07-22T07:27:54;77.50;;;9.60;;
8514;SDS011;4295;51.024;7.000;2022-07-22T07:30:20;78.30;;;9.30;;
8514;SDS011;4295;51.024;7.000;2022-07-22T07:32:46;78.20;;;9.60;;
8514;SDS011;4295;51.024;7.000;2022-07-22T07:35:12;79.10;;;9.23;;
8514;SDS011;4295;51.024;7.000;2022-07-22T07:37:37;78.57;;;9.43;;
8514;SDS011;4295;51.024;7.000;2022-07-22T07:40:03;80.80;;;9.80;;
8514;SDS011;4295;51.024;7.000;2022-07-22T07:42:30;79.67;;;9.63;;
8514;SDS011;4295;51.024;7.000;2022-07-22T07:44:55;78.97;;;9.47;;
8514;SDS011;4295;51.024;7.000;2022-07-22T07:47:21;82.77;;;10.30;;
8514;SDS011;4295;51.024;7.000;2022-07-22T07:49:47;80.50;;;10.60;;
8514;SDS011;4295;51.024;7.000;2022-07-22T07:52:15;77.80;;;9.33;;
8514;SDS011;4295;51.024;7.000;2022-07-22T07:54:42;78.77;;;10.00;;
8514;SDS011;4295;51.024;7.000;2022-07-22T07:57:08;80.37;;;10.77;;
8514;SDS011;4295;51.024;7.000;2022-07-22T07:59:35;80.63;;;9.00;;
8514;SDS011;4295;51.024;7.000;2022-07-22T08:02:02;78.60;;;9.80;;
8514;SDS011;4295;51.024;7.000;2022-07-22T08:04:28;79.20;;;8.93;;
8514;SDS011;4295;51.024;7.000;2022-07-22T08:06:53;80.87;;;10.90;;
8514;SDS011;4295;51.024;7.000;2022-07-22T08:09:19;78.50;;;10.20;;
8514;SDS011;4295;51.024;7.000;2022-07-22T08:11:44;80.77;;;11.13;;
8514;SDS011;4295;51.024;7.000;2022-07-22T08:14:10;80.00;;;10.20;;
8514;SDS011;4295;51.024;7.000;2022-07-22T08:16:35;78.97;;;9.60;;
8514;SDS011;4295;51.024;7.000;2022-07-22T08:19:01;78.37;;;9.67;;
8514;SDS011;4295;51.024;7.000;2022-07-22T08:21:26;79.50;;;9.80;;
8514;SDS011;4295;51.024;7.000;2022-07-22T08:23:51;82.47;;;10.40;;
8514;SDS011;4295;51.024;7.000;2022-07-22T08:26:17;81.40;;;10.37;;
8514;SDS011;4295;51.024;7.000;2022-07-22T08:28:43;81.27;;;9.83;;
8514;SDS011;4295;51.024;7.000;2022-07-22T08:31:08;81.47;;;10.60;;
8514;SDS011;4295;51.024;7.000;2022-07-22T08:33:33;82.97;;;10.83;;
8514;SDS011;4295;51.024;7.000;2022-07-22T08:35:59;78.60;;;10.10;;
8514;SDS011;4295;51.024;7.000;2022-07-22T08:38:25;82.10;;;10.77;;
8514;SDS011;4295;51.024;7.000;2022-07-22T08:40:52;80.87;;;10.90;;
8514;SDS011;4295;51.024;7.000;2022-07-22T08:43:19;79.23;;;10.43;;
8514;SDS011;4295;51.024;7.000;2022-07-22T08:45:45;81.00;;;10.87;;
8514;SDS011;4295;51.024;7.000;2022-07-22T08:48:11;83.67;;;11.43;;
8514;SDS011;4295;51.024;7.000;2022-07-22T08:50:37;82.70;;;10.50;;
8514;SDS011;4295;51.024;7.000;2022-07-22T08:53:02;80.10;;;10.60;;
8514;SDS011;4295;51.024;7.000;2022-07-22T08:55:28;81.77;;;10.73;;
8514;SDS011;4295;51.024;7.000;2022-07-22T08:57:53;82.63;;;11.10;;
8514;SDS011;4295;51.024;7.000;2022-07-22T09:00:20;80.07;;;10.73;;
8514;SDS011;4295;51.024;7.000;2022-07-22T09:02:47;81.67;;;10.27;;
8514;SDS011;4295;51.024;7.000;2022-07-22T09:05:13;85.63;;;11.00;;
8514;SDS011;4295;51.024;7.000;2022-07-22T09:07:40;79.13;;;11.00;;
8514;SDS011;4295;51.024;7.000;2022-07-22T09:10:09;78.83;;;10.50;;
8514;SDS011;4295;51.024;7.000;2022-07-22T09:12:55;77.33;;;10.00;;
8514;SDS011;4295;51.024;7.000;2022-07-22T09:15:33;80.37;;;11.13;;
8514;SDS011;4295;51.024;7.000;2022-07-22T09:56:47;78.87;;;11.17;;
8514;SDS011;4295;51.024;7.000;2022-07-22T09:59:13;79.90;;;11.40;;
8514;SDS011;4295;51.024;7.000;2022-07-22T10:01:38;78.60;;;12.00;;
8514;SDS011;4295;51.024;7.000;2022-07-22T10:04:05;78.70;;;11.10;;
8514;SDS011;4295;51.024;7.000;2022-07-22T10:06:31;81.00;;;12.23;;
8514;SDS011;4295;51.024;7.000;2022-07-22T10:08:57;79.60;;;12.50;;
8514;SDS011;4295;51.024;7.000;2022-07-22T10:11:24;84.67;;;12.57;;
8514;SDS011;4295;51.024;7.000;2022-07-22T10:13:49;82.87;;;11.93;;
8514;SDS011;4295;51.024;7.000;2022-07-22T10:16:17;83.83;;;11.43;;
8514;SDS011;4295;51.024;7.000;2022-07-22T10:18:46;78.60;;;11.27;;
8514;SDS011;4295;51.024;7.000;2022-07-22T10:21:15;79.30;;;10.90;;
8514;SDS011;4295;51.024;7.000;2022-07-22T10:27:09;81.17;;;11.50;;
8514;SDS011;4295;51.024;7.000;2022-07-22T10:29:32;79.73;;;12.27;;
8514;SDS011;4295;51.024;7.000;2022-07-22T10:34:43;81.33;;;12.40;;
8514;SDS011;4295;51.024;7.000;2022-07-22T10:45:26;79.27;;;12.20;;
8514;SDS011;4295;51.024;7.000;2022-07-22T10:47:55;82.37;;;11.67;;
8514;SDS011;4295;51.024;7.000;2022-07-22T10:53:06;77.87;;;10.97;;
8514;SDS011;4295;51.024;7.000;2022-07-22T10:55:34;78.70;;;12.33;;
8514;SDS011;4295;51.024;7.000;2022-07-22T10:58:00;79.97;;;11.27;;
8514;SDS011;4295;51.024;7.000;2022-07-22T11:00:26;79.00;;;10.63;;
8514;SDS011;4295;51.024;7.000;2022-07-22T11:02:51;80.73;;;11.83;;
8514;SDS011;4295;51.024;7.000;2022-07-22T11:05:24;76.77;;;11.10;;
8514;SDS011;4295;51.024;7.000;2022-07-22T11:07:50;82.93;;;11.90;;
8514;SDS011;4295;51.024;7.000;2022-07-22T11:10:17;77.37;;;11.40;;
8514;SDS011;4295;51.024;7.000;2022-07-22T11:12:44;81.53;;;12.10;;
8514;SDS011;4295;51.024;7.000;2022-07-22T11:15:11;80.77;;;11.13;;
8514;SDS011;4295;51.024;7.000;2022-07-22T11:17:37;79.73;;;10.80;;
8514;SDS011;4295;51.024;7.000;2022-07-22T11:20:07;78.07;;;11.90;;
8514;SDS011;4295;51.024;7.000;2022-07-22T11:22:35;78.97;;;11.30;;
8514;SDS011;4295;51.024;7.000;2022-07-22T11:25:02;77.10;;;11.67;;
8514;SDS011;4295;51.024;7.000;2022-07-22T11:27:29;81.90;;;11.57;;
8514;SDS011;4295;51.024;7.000;2022-07-22T11:29:55;82.50;;;10.87;;
8514;SDS011;4295;51.024;7.000;2022-07-22T11:32:23;79.40;;;11.03;;
8514;SDS011;4295;51.024;7.000;2022-07-22T11:34:50;77.87;;;10.97;;
8514;SDS011;4295;51.024;7.000;2022-07-22T11:37:18;80.20;;;12.00;;
8514;SDS011;4295;51.024;7.000;2022-07-22T11:39:48;79.47;;;11.63;;
8514;SDS011;4295;51.024;7.000;2022-07-22T11:42:14;76.70;;;11.43;;
8514;SDS011;4295;51.024;7.000;2022-07-22T11:44:40;77.70;;;10.63;;
8514;SDS011;4295;51.024;7.000;2022-07-22T11:47:06;77.00;;;10.97;;
8514;SDS011;4295;51.024;7.000;2022-07-22T11:49:34;80.07;;;11.67;;
8514;SDS011;4295;51.024;7.000;2022-07-22T11:52:02;77.20;;;11.40;;
8514;SDS011;4295;51.024;7.000;2022-07-22T11:54:28;80.00;;;11.63;;
8514;SDS011;4295;51.024;7.000;2022-07-22T11:56:54;76.40;;;11.47;;
8514;SDS011;4295;51.024;7.000;2022-07-22T11:59:19;79.40;;;11.70;;
8514;SDS011;4295;51.024;7.000;2022-07-22T12:01:46;80.63;;;12.30;;
8514;SDS011;4295;51.024;7.000;2022-07-22T12:04:13;78.30;;;11.67;;
8514;SDS011;4295;51.024;7.000;2022-07-22T12:06:42;77.30;;;11.33;;
8514;SDS011;4295;51.024;7.000;2022-07-22T12:11:34;84.27;;;12.57;;
8514;SDS011;4295;51.024;7.000;2022-07-22T12:14:09;77.90;;;10.57;;
8514;SDS011;4295;51.024;7.000;2022-07-22T12:16:35;78.30;;;11.70;;
8514;SDS011;4295;51.024;7.000;2022-07-22T12:21:27;78.90;;;11.40;;
8514;SDS011;4295;51.024;7.000;2022-07-22T12:24:03;79.43;;;11.37;;
8514;SDS011;4295;51.024;7.000;2022-07-22T12:26:37;79.00;;;11.30;;
8514;SDS011;4295;51.024;7.000;2022-07-22T12:29:15;78.17;;;11.70;;
8514;SDS011;4295;51.024;7.000;2022-07-22T12:31:43;77.50;;;11.47;;
8514;SDS011;4295;51.024;7.000;2022-07-22T12:34:13;85.17;;;11.40;;
8514;SDS011;4295;51.024;7.000;2022-07-22T12:36:46;78.03;;;12.17;;
8514;SDS011;4295;51.024;7.000;2022-07-22T12:39:16;84.20;;;11.30;;
8514;SDS011;4295;51.024;7.000;2022-07-22T12:41:46;76.67;;;10.90;;
8514;SDS011;4295;51.024;7.000;2022-07-22T12:44:21;79.60;;;11.53;;
8514;SDS011;4295;51.024;7.000;2022-07-22T12:46:49;84.70;;;12.50;;
8514;SDS011;4295;51.024;7.000;2022-07-22T12:49:17;77.67;;;11.00;;
8514;SDS011;4295;51.024;7.000;2022-07-22T12:54:32;77.80;;;11.00;;
8514;SDS011;4295;51.024;7.000;2022-07-22T12:56:58;78.57;;;12.40;;
8514;SDS011;4295;51.024;7.000;2022-07-22T12:59:24;75.80;;;11.20;;
8514;SDS011;4295;51.024;7.000;2022-07-22T13:01:49;77.60;;;11.83;;
8514;SDS011;4295;51.024;7.000;2022-07-22T13:04:15;77.83;;;11.70;;
8514;SDS011;4295;51.024;7.000;2022-07-22T13:06:40;77.87;;;12.03;;
8514;SDS011;4295;51.024;7.000;2022-07-22T13:09:05;78.87;;;12.63;;
8514;SDS011;4295;51.024;7.000;2022-07-22T13:11:31;77.50;;;11.67;;
8514;SDS011;4295;51.024;7.000;2022-07-22T13:13:56;91.33;;;14.23;;
8514;SDS011;4295;51.024;7.000;2022-07-22T13:16:22;77.77;;;12.53;;
8514;SDS011;4295;51.024;7.000;2022-07-22T13:18:49;78.70;;;11.97;;
8514;SDS011;4295;51.024;7.000;2022-07-22T13:21:15;78.67;;;11.20;;
8514;SDS011;4295;51.024;7.000;2022-07-22T13:23:41;76.60;;;10.73;;
8514;SDS011;4295;51.024;7.000;2022-07-22T13:26:06;76.27;;;11.37;;
8514;SDS011;4295;51.024;7.000;2022-07-22T13:28:32;79.90;;;11.70;;
8514;SDS011;4295;51.024;7.000;2022-07-22T13:30:57;76.57;;;10.67;;
8514;SDS011;4295;51.024;7.000;2022-07-22T13:33:22;79.40;;;12.07;;
8514;SDS011;4295;51.024;7.000;2022-07-22T13:35:48;77.83;;;11.53;;
8514;SDS011;4295;51.024;7.000;2022-07-22T13:38:13;78.00;;;12.17;;
8514;SDS011;4295;51.024;7.000;2022-07-22T13:40:41;76.70;;;11.70;;
8514;SDS011;4295;51.024;7.000;2022-07-22T13:43:15;76.87;;;11.27;;
8514;SDS011;4295;51.024;7.000;2022-07-22T13:45:40;79.17;;;12.40;;
8514;SDS011;4295;51.024;7.000;2022-07-22T13:48:05;79.07;;;11.40;;
8514;SDS011;4295;51.024;7.000;2022-07-22T13:50:31;81.43;;;12.67;;
8514;SDS011;4295;51.024;7.000;2022-07-22T13:52:56;78.47;;;12.03;;
8514;SDS011;4295;51.024;7.000;2022-07-22T13:55:22;78.80;;;11.80;;
8514;SDS011;4295;51.024;7.000;2022-07-22T13:57:47;89.03;;;11.30;;
8514;SDS011;4295;51.024;7.000;2022-07-22T14:00:13;77.70;;;10.97;;
8514;SDS011;4295;51.024;7.000;2022-07-22T14:02:38;77.77;;;11.80;;
8514;SDS011;4295;51.024;7.000;2022-07-22T14:05:04;78.03;;;11.63;;
8514;SDS011;4295;51.024;7.000;2022-07-22T14:07:30;75.13;;;11.00;;
8514;SDS011;4295;51.024;7.000;2022-07-22T14:09:55;76.77;;;10.90;;
8514;SDS011;4295;51.024;7.000;2022-07-22T14:12:20;77.97;;;10.00;;
8514;SDS011;4295;51.024;7.000;2022-07-22T14:14:46;76.80;;;10.90;;
8514;SDS011;4295;51.024;7.000;2022-07-22T14:17:11;80.87;;;12.93;;
8514;SDS011;4295;51.024;7.000;2022-07-22T14:19:37;78.20;;;11.20;;
8514;SDS011;4295;51.024;7.000;2022-07-22T14:22:02;79.50;;;11.80;;
8514;SDS011;4295;51.024;7.000;2022-07-22T14:24:27;77.10;;;12.00;;
8514;SDS011;4295;51.024;7.000;2022-07-22T14:26:53;76.47;;;11.10;;
8514;SDS011;4295;51.024;7.000;2022-07-22T14:29:18;77.30;;;11.47;;
8514;SDS011;4295;51.024;7.000;2022-07-22T14:31:46;76.10;;;10.93;;
8514;SDS011;4295;51.024;7.000;2022-07-22T14:34:11;75.73;;;10.03;;
8514;SDS011;4295;51.024;7.000;2022-07-22T14:36:37;78.37;;;11.07;;
8514;SDS011;4295;51.024;7.000;2022-07-22T14:39:02;85.20;;;11.47;;
8514;SDS011;4295;51.024;7.000;2022-07-22T14:41:28;82.13;;;10.50;;
8514;SDS011;4295;51.024;7.000;2022-07-22T14:43:53;76.87;;;11.23;;
8514;SDS011;4295;51.024;7.000;2022-07-22T14:46:18;78.00;;;11.03;;
8514;SDS011;4295;51.024;7.000;2022-07-22T14:48:44;76.50;;;10.90;;
8514;SDS011;4295;51.024;7.000;2022-07-22T14:51:10;77.10;;;11.40;;
8514;SDS011;4295;51.024;7.000;2022-07-22T14:53:36;78.40;;;12.30;;
8514;SDS011;4295;51.024;7.000;2022-07-22T14:56:01;77.33;;;11.80;;
8514;SDS011;4295;51.024;7.000;2022-07-22T14:58:27;79.27;;;12.53;;
8514;SDS011;4295;51.024;7.000;2022-07-22T15:00:52;79.07;;;12.30;;
8514;SDS011;4295;51.024;7.000;2022-07-22T15:03:18;78.47;;;12.80;;
8514;SDS011;4295;51.024;7.000;2022-07-22T15:05:44;79.47;;;11.70;;
8514;SDS011;4295;51.024;7.000;2022-07-22T15:08:10;77.87;;;12.13;;
8514;SDS011;4295;51.024;7.000;2022-07-22T15:10:35;78.50;;;11.53;;
8514;SDS011;4295;51.024;7.000;2022-07-22T15:13:01;80.97;;;11.30;;
8514;SDS011;4295;51.024;7.000;2022-07-22T15:15:26;76.87;;;11.70;;
8514;SDS011;4295;51.024;7.000;2022-07-22T15:17:52;77.83;;;11.57;;
8514;SDS011;4295;51.024;7.000;2022-07-22T15:20:17;78.80;;;11.83;;
8514;SDS011;4295;51.024;7.000;2022-07-22T15:22:43;82.47;;;12.60;;
8514;SDS011;4295;51.024;7.000;2022-07-22T15:25:08;81.50;;;13.40;;
8514;SDS011;4295;51.024;7.000;2022-07-22T15:30:56;81.57;;;13.03;;
8514;SDS011;4295;51.024;7.000;2022-07-22T15:33:22;83.43;;;12.80;;
8514;SDS011;4295;51.024;7.000;2022-07-22T15:35:48;78.60;;;12.80;;
8514;SDS011;4295;51.024;7.000;2022-07-22T15:38:13;81.20;;;13.13;;
8514;SDS011;4295;51.024;7.000;2022-07-22T15:40:38;79.17;;;12.30;;
8514;SDS011;4295;51.024;7.000;2022-07-22T15:43:05;78.93;;;12.13;;
8514;SDS011;4295;51.024;7.000;2022-07-22T15:45:31;84.80;;;12.63;;
8514;SDS011;4295;51.024;7.000;2022-07-22T15:47:57;81.90;;;13.20;;